createdAt,value
2017-10-25T07:47:03.823Z,6.00
2017-10-25T07:49:33.814Z,6.13
2017-10-25T07:52:05.486Z,6.20
2017-10-25T07:54:34.498Z,6.90
2017-10-25T07:57:04.178Z,6.27
2017-10-25T07:59:35.546Z,7.07
2017-10-25T08:02:04.518Z,6.17
2017-10-25T08:04:32.546Z,6.17
2017-10-25T08:07:01.354Z,5.80
2017-10-25T08:09:30.259Z,5.63
2017-10-25T08:11:59.262Z,5.40
2017-10-25T08:14:30.721Z,5.00
2017-10-25T08:17:01.158Z,5.03
2017-10-25T08:19:29.557Z,5.90
2017-10-25T08:21:58.357Z,6.10
2017-10-25T08:24:26.386Z,5.37
2017-10-25T08:26:57.726Z,5.33
2017-10-25T08:29:25.741Z,6.70
2017-10-25T08:31:54.677Z,6.30
2017-10-25T08:34:22.701Z,6.20
2017-10-25T08:36:50.737Z,6.10
2017-10-25T08:39:18.761Z,6.07
2017-10-25T08:41:47.773Z,6.70
2017-10-25T08:44:15.986Z,5.17
2017-10-25T08:46:44.784Z,4.87
2017-10-25T08:49:19.266Z,5.90
2017-10-25T08:51:49.194Z,5.93
2017-10-25T08:54:17.201Z,5.73
2017-10-25T08:56:49.461Z,6.53
2017-10-25T08:59:17.490Z,6.40
2017-10-25T09:01:45.514Z,5.87
2017-10-25T09:04:17.433Z,5.27
2017-10-25T09:06:51.122Z,6.03
2017-10-25T09:09:19.169Z,5.50
2017-10-25T09:11:48.190Z,5.80
2017-10-25T09:14:17.169Z,6.50
2017-10-25T09:16:45.218Z,6.00
2017-10-25T09:19:13.237Z,5.60
2017-10-25T09:21:42.029Z,5.80
2017-10-25T09:24:12.749Z,6.37
2017-10-25T09:26:43.782Z,5.90
2017-10-25T09:29:11.846Z,5.90
2017-10-25T09:31:41.781Z,5.50
2017-10-25T09:34:14.461Z,5.30
2017-10-25T09:36:43.441Z,5.47
2017-10-25T09:39:17.912Z,4.77
2017-10-25T09:41:45.941Z,5.60
2017-10-25T09:44:15.953Z,4.87
2017-10-25T09:46:45.036Z,5.20
2017-10-25T09:49:13.196Z,6.40
2017-10-25T09:51:42.197Z,6.33
2017-10-25T09:54:10.245Z,5.57
2017-10-25T09:56:38.297Z,5.97
2017-10-25T09:59:07.085Z,4.93
2017-10-25T10:01:36.154Z,4.57
2017-10-25T10:04:05.858Z,4.17
2017-10-25T10:06:36.920Z,4.70
2017-10-25T10:09:07.621Z,5.10
2017-10-25T10:11:35.653Z,5.27
2017-10-25T10:14:03.705Z,4.70
2017-10-25T10:16:33.477Z,4.30
2017-10-25T10:19:03.317Z,4.20
2017-10-25T10:21:31.374Z,4.83
2017-10-25T10:24:00.165Z,4.50
2017-10-25T10:26:28.241Z,4.10
2017-10-25T10:28:57.029Z,4.43
2017-10-25T10:31:26.001Z,5.17
2017-10-25T10:33:55.830Z,5.13
2017-10-25T10:36:24.800Z,5.10
2017-10-25T10:38:54.601Z,5.10
2017-10-25T10:41:22.644Z,4.70
2017-10-25T10:43:50.689Z,5.70
2017-10-25T10:46:18.725Z,5.13
2017-10-25T10:48:50.905Z,5.37
2017-10-25T10:51:19.708Z,5.33
2017-10-25T10:53:49.673Z,4.47
2017-10-25T10:56:17.719Z,5.30
2017-10-25T10:58:45.740Z,4.67
2017-10-25T11:01:14.528Z,4.30
2017-10-25T11:03:43.356Z,4.10
2017-10-25T11:06:11.404Z,3.73
2017-10-25T11:08:40.293Z,4.00
2017-10-25T11:11:11.724Z,4.00
2017-10-25T11:13:41.525Z,3.90
2017-10-25T11:16:14.923Z,4.13
2017-10-25T11:18:46.812Z,4.67
2017-10-25T11:21:18.458Z,4.33
2017-10-25T11:23:48.241Z,4.90
2017-10-25T11:26:20.209Z,4.23
2017-10-25T11:28:48.253Z,3.43
2017-10-25T11:31:16.256Z,4.27
2017-10-25T11:33:45.140Z,3.40
2017-10-25T11:36:13.184Z,3.67
2017-10-25T11:38:42.117Z,3.77
2017-10-25T11:41:10.916Z,3.70
2017-10-25T11:43:40.636Z,2.70
2017-10-25T11:46:08.692Z,2.50
2017-10-25T11:48:36.731Z,2.13
2017-10-25T11:51:06.703Z,3.07
2017-10-25T11:53:34.719Z,2.40
2017-10-25T11:56:03.632Z,2.27
2017-10-25T11:58:40.754Z,2.10
2017-10-25T12:01:08.840Z,2.10
2017-10-25T12:03:36.884Z,2.17
2017-10-25T12:06:08.064Z,2.20
2017-10-25T12:08:36.088Z,2.17
2017-10-25T12:11:05.026Z,2.40
2017-10-25T12:13:36.484Z,2.00
2017-10-25T12:16:04.648Z,1.93
2017-10-25T12:18:32.672Z,1.90
2017-10-25T12:21:00.699Z,2.03
2017-10-25T12:23:28.723Z,1.83
2017-10-25T12:25:59.380Z,1.80
2017-10-25T12:28:31.459Z,1.80
2017-10-25T12:31:00.255Z,1.83
2017-10-25T12:33:29.218Z,1.87
2017-10-25T12:35:59.996Z,2.10
2017-10-25T12:38:29.780Z,1.70
2017-10-25T12:41:00.767Z,1.50
2017-10-25T12:43:28.791Z,1.90
2017-10-25T12:45:59.407Z,1.57
2017-10-25T12:48:27.448Z,1.83
2017-10-25T12:50:56.280Z,1.53
2017-10-25T12:53:24.303Z,1.47
2017-10-25T12:55:53.343Z,1.30
2017-10-25T12:58:21.371Z,1.30
2017-10-25T13:00:54.699Z,1.70
2017-10-25T13:03:22.723Z,1.27
2017-10-25T13:05:55.152Z,1.47
2017-10-25T13:08:23.168Z,1.33
2017-10-25T13:14:18.975Z,1.23
2017-10-25T13:17:22.551Z,1.13
2017-10-25T13:19:50.567Z,1.30
2017-10-25T13:22:18.579Z,1.00
2017-10-25T13:24:47.584Z,1.50
2017-10-25T13:27:15.603Z,0.97
2017-10-25T13:29:43.627Z,1.17
2017-10-25T13:32:12.635Z,0.90
2017-10-25T13:34:46.403Z,1.20
2017-10-25T13:37:14.435Z,1.27
2017-10-25T13:39:42.451Z,1.30
2017-10-25T13:42:13.703Z,1.40
2017-10-25T13:44:41.723Z,1.47
2017-10-25T13:47:10.651Z,1.50
2017-10-25T13:49:38.672Z,1.60
2017-10-25T13:52:12.419Z,2.13
2017-10-25T13:54:41.364Z,1.33
2017-10-25T13:57:14.236Z,1.53
2017-10-25T13:59:42.275Z,1.40
2017-10-25T14:02:10.295Z,1.57
2017-10-25T14:04:39.232Z,1.17
2017-10-25T14:07:08.236Z,1.07
2017-10-25T14:09:40.911Z,1.50
2017-10-25T14:12:08.940Z,1.60
2017-10-25T14:14:36.951Z,1.20
2017-10-25T14:17:04.958Z,1.20
2017-10-25T14:19:33.923Z,1.27
2017-10-25T14:22:01.938Z,1.53
2017-10-25T14:24:30.642Z,1.23
2017-10-25T14:27:10.471Z,1.20
2017-10-25T14:29:41.359Z,1.47
2017-10-25T14:32:09.371Z,1.80
2017-10-25T14:34:42.728Z,1.40
2017-10-25T14:37:10.746Z,1.47
2017-10-25T14:39:42.351Z,1.50
2017-10-25T14:42:12.343Z,1.37
2017-10-25T14:44:43.610Z,1.30
2017-10-25T14:47:11.631Z,1.40
2017-10-25T14:49:39.639Z,1.30
2017-10-25T14:52:09.767Z,1.40
2017-10-25T14:54:38.751Z,1.60
2017-10-25T14:57:06.783Z,1.50
2017-10-25T14:59:34.807Z,1.80
2017-10-25T15:02:03.595Z,1.43
2017-10-25T15:04:32.371Z,2.30
2017-10-25T15:07:00.410Z,1.80
2017-10-25T15:09:28.435Z,1.60
2017-10-25T15:11:57.214Z,2.20
2017-10-25T15:14:26.019Z,2.17
2017-10-25T15:16:54.041Z,1.73
2017-10-25T15:19:23.576Z,2.00
2017-10-25T15:21:51.575Z,3.10
2017-10-25T15:24:21.526Z,2.40
2017-10-25T15:26:49.555Z,2.23
2017-10-25T15:29:17.582Z,2.10
2017-10-25T15:31:45.626Z,2.10
2017-10-25T15:34:13.634Z,2.50
2017-10-25T15:36:42.435Z,2.10
2017-10-25T15:39:11.219Z,2.33
2017-10-25T15:41:40.934Z,3.80
2017-10-25T15:44:11.751Z,3.20
2017-10-25T15:46:40.542Z,3.37
2017-10-25T15:49:08.547Z,2.33
2017-10-25T15:51:37.598Z,3.33
2017-10-25T15:54:05.623Z,3.30
2017-10-25T15:56:34.407Z,4.23
2017-10-25T15:59:02.459Z,4.10
2017-10-25T16:01:30.487Z,4.33
2017-10-25T16:03:58.523Z,5.90
2017-10-25T16:06:27.566Z,12.70
2017-10-25T16:08:56.816Z,20.37
2017-10-25T16:11:31.358Z,8.07
2017-10-25T16:13:59.626Z,5.80
2017-10-25T16:16:29.674Z,5.03
2017-10-25T16:18:58.586Z,3.97
2017-10-25T16:21:26.830Z,3.30
2017-10-25T16:23:56.826Z,3.50
2017-10-25T16:26:24.861Z,2.77
2017-10-25T16:28:52.878Z,3.57
2017-10-25T16:31:21.874Z,3.40
2017-10-25T16:33:49.918Z,3.40
2017-10-25T16:36:17.942Z,6.10
2017-10-25T16:38:46.735Z,9.60
2017-10-25T16:41:14.762Z,7.87
2017-10-25T16:43:42.798Z,3.73
2017-10-25T16:46:11.818Z,2.33
2017-10-25T16:48:40.868Z,2.27
2017-10-25T16:51:10.847Z,1.77
2017-10-25T16:53:38.834Z,2.07
2017-10-25T16:56:07.642Z,1.77
2017-10-25T16:58:35.663Z,1.90
2017-10-25T17:01:03.677Z,2.70
2017-10-25T17:03:31.702Z,3.70
2017-10-25T17:05:59.719Z,3.60
2017-10-25T17:08:32.854Z,3.00
2017-10-25T17:11:01.769Z,5.53
2017-10-25T17:13:31.757Z,5.20
2017-10-25T17:15:59.786Z,2.63
2017-10-25T17:18:28.570Z,2.10
2017-10-25T17:20:56.618Z,4.70
2017-10-25T17:23:25.434Z,4.80
2017-10-25T17:25:53.470Z,4.30
2017-10-25T17:28:23.489Z,5.10
2017-10-25T17:30:53.294Z,4.30
2017-10-25T17:33:22.282Z,2.70
2017-10-25T17:35:50.305Z,2.53
2017-10-25T17:38:18.325Z,3.10
2017-10-25T17:40:47.125Z,4.23
2017-10-25T17:43:17.864Z,3.30
2017-10-25T17:45:52.141Z,3.93
2017-10-25T17:48:20.182Z,9.10
2017-10-25T17:50:48.237Z,11.53
2017-10-25T17:53:16.273Z,10.20
2017-10-25T17:55:45.093Z,6.53
2017-10-25T17:58:13.109Z,4.30
2017-10-25T18:00:41.153Z,5.63
2017-10-25T18:03:10.205Z,4.77
2017-10-25T18:05:38.237Z,4.10
2017-10-25T18:08:06.270Z,3.50
2017-10-25T18:10:34.310Z,3.87
2017-10-25T18:13:03.119Z,3.67
2017-10-25T18:15:32.145Z,3.47
2017-10-25T18:18:02.713Z,3.93
2017-10-25T18:20:30.734Z,4.30
2017-10-25T18:22:58.785Z,3.80
2017-10-25T18:25:28.506Z,4.17
2017-10-25T18:27:56.565Z,3.60
2017-10-25T18:30:25.526Z,4.57
2017-10-25T18:32:53.622Z,4.87
2017-10-25T18:35:23.397Z,4.30
2017-10-25T18:37:51.422Z,4.47
2017-10-25T18:40:19.457Z,5.00
2017-10-25T18:42:49.282Z,5.20
2017-10-25T18:45:18.424Z,4.77
2017-10-25T18:47:47.482Z,4.60
2017-10-25T18:50:15.565Z,4.60
2017-10-25T18:52:44.353Z,4.63
2017-10-25T18:55:12.433Z,5.10
2017-10-25T18:57:41.514Z,5.80
2017-10-25T19:00:10.302Z,6.47
2017-10-25T19:02:39.357Z,5.23
2017-10-25T19:05:10.082Z,8.93
2017-10-25T19:07:38.592Z,9.33
2017-10-25T19:10:06.665Z,6.93
2017-10-25T19:12:34.716Z,6.53
2017-10-25T19:15:03.526Z,7.53
2017-10-25T19:17:32.237Z,7.17
2017-10-25T19:20:00.597Z,8.03
2017-10-25T19:22:28.633Z,7.40
2017-10-25T19:24:57.641Z,7.53
2017-10-25T19:27:25.696Z,6.97
2017-10-25T19:29:55.502Z,7.17
2017-10-25T19:32:24.560Z,7.40
2017-10-25T19:34:52.569Z,8.30
2017-10-25T19:37:21.569Z,22.17
2017-10-25T19:39:50.399Z,9.83
2017-10-25T19:42:20.197Z,10.93
2017-10-25T19:44:49.021Z,9.90
2017-10-25T19:47:17.084Z,11.33
2017-10-25T19:49:45.120Z,12.23
2017-10-25T19:52:14.840Z,18.33
2017-10-25T19:54:42.880Z,13.40
2017-10-25T19:57:11.785Z,16.03
2017-10-25T19:59:39.817Z,20.47
2017-10-25T20:02:07.884Z,14.03
2017-10-25T20:04:35.929Z,20.40
2017-10-25T20:07:03.968Z,12.57
2017-10-25T20:09:32.017Z,11.30
2017-10-25T20:12:00.848Z,11.97
2017-10-25T20:14:28.895Z,12.03
2017-10-25T20:16:56.964Z,11.70
2017-10-25T20:19:25.012Z,11.50
2017-10-25T20:21:53.828Z,11.20
2017-10-25T20:24:21.905Z,12.80
2017-10-25T20:26:51.905Z,11.73
2017-10-25T20:29:21.724Z,12.70
2017-10-25T20:31:50.801Z,12.57
2017-10-25T20:34:19.608Z,13.53
2017-10-25T20:36:47.668Z,12.90
2017-10-25T20:39:16.504Z,15.47
2017-10-25T20:41:44.560Z,14.90
2017-10-25T20:44:12.620Z,13.73
2017-10-25T20:46:40.672Z,13.13
2017-10-25T20:49:10.444Z,13.37
2017-10-25T20:51:38.480Z,13.70
2017-10-25T20:54:07.280Z,13.80
2017-10-25T20:56:36.767Z,11.50
2017-10-25T20:59:04.867Z,11.20
2017-10-25T21:01:32.904Z,12.80
2017-10-25T21:04:00.989Z,13.70
2017-10-25T21:06:30.036Z,13.93
2017-10-25T21:09:00.768Z,16.57
2017-10-25T21:11:29.628Z,14.57
2017-10-25T21:13:57.699Z,15.53
2017-10-25T21:16:26.760Z,16.07
2017-10-25T21:18:55.576Z,18.00
2017-10-25T21:21:24.672Z,16.35
2017-10-25T21:23:55.900Z,18.65
2017-10-25T21:26:23.956Z,17.33
2017-10-25T21:28:51.992Z,17.97
2017-10-25T21:31:21.848Z,18.07
2017-10-25T21:33:50.499Z,17.20
2017-10-25T21:36:18.631Z,16.50
2017-10-25T21:38:47.668Z,16.10
2017-10-25T21:41:15.711Z,17.20
2017-10-25T21:43:44.688Z,16.33
2017-10-25T21:46:13.348Z,16.05
2017-10-25T21:48:41.383Z,17.60
2017-10-25T21:51:10.340Z,17.75
2017-10-25T21:53:38.436Z,17.30
2017-10-25T21:56:06.495Z,16.75
2017-10-25T21:58:35.330Z,17.23
2017-10-25T22:01:04.404Z,19.57
2017-10-25T22:03:32.440Z,20.30
2017-10-25T22:06:01.261Z,22.17
2017-10-25T22:08:32.068Z,21.03
2017-10-25T22:11:00.884Z,23.25
2017-10-25T22:13:29.712Z,21.95
2017-10-25T22:15:57.872Z,21.33
2017-10-25T22:18:27.820Z,20.35
2017-10-25T22:20:55.864Z,20.62
2017-10-25T22:23:26.872Z,20.42
2017-10-25T22:25:56.859Z,20.70
2017-10-25T22:28:25.676Z,20.60
2017-10-25T22:30:53.848Z,19.98
2017-10-25T22:33:21.920Z,20.95
2017-10-25T22:35:49.978Z,20.27
2017-10-25T22:38:18.800Z,20.33
2017-10-25T22:40:46.844Z,18.98
2017-10-25T22:43:14.891Z,20.48
2017-10-25T22:45:43.723Z,19.42
2017-10-25T22:48:12.532Z,19.75
2017-10-25T22:50:40.579Z,19.15
2017-10-25T22:53:08.740Z,19.60
2017-10-25T22:55:37.820Z,19.58
2017-10-25T22:58:06.599Z,21.52
2017-10-25T23:00:37.368Z,19.67
2017-10-25T23:03:05.419Z,21.10
2017-10-25T23:05:33.499Z,21.30
2017-10-25T23:08:01.580Z,21.25
2017-10-25T23:10:29.628Z,22.27
2017-10-25T23:12:57.663Z,22.13
2017-10-25T23:15:26.691Z,21.40
2017-10-25T23:17:54.739Z,17.58
2017-10-25T23:20:23.548Z,18.48
2017-10-25T23:22:52.394Z,21.95
2017-10-25T23:25:20.411Z,17.87
2017-10-25T23:27:49.379Z,17.40
2017-10-25T23:30:18.199Z,30.27
2017-10-25T23:32:48.199Z,28.40
2017-10-25T23:35:16.247Z,23.58
2017-10-25T23:37:44.303Z,23.90
2017-10-25T23:40:13.339Z,22.25
2017-10-25T23:42:42.146Z,26.23
2017-10-25T23:45:11.196Z,16.92
2017-10-25T23:47:41.011Z,17.62
2017-10-25T23:50:09.823Z,17.20
2017-10-25T23:52:39.623Z,17.77
2017-10-25T23:55:08.435Z,19.00
2017-10-25T23:57:36.499Z,21.70
